Terminal Aerodrome Forecast
Issued by NWS Twin Cities, MN

Home | Current Version | Previous Version | Graphics & Text | Print | Product List | Glossary On
Versions: 1 2 3 4 5 6 7 8 9 10 11 12 13 14 15 16 17 18 19 20 21 22 23 24 25 26 27 28 29 30 31 32 33
000
FTUS43 KMPX 202100 AAB
TAFMSP
TAF AMD
KMSP 202100Z 2021/2124 17010KT 5SM -RA BR SCT005 OVC010
      TEMPO 2021/2024 2SM -RA BR OVC005
     FM210200 23008KT 5SM BR VCSH BKN007 OVC012
     FM210400 28009KT P6SM SCT030
     FM211000 21003KT 4SM BR SCT015
     FM211400 18008KT P6SM SCT250=

USA.gov is the U.S. government's official web portal to all federal, state and local government web resources and services.